sensor_id;sensor_type;location;lat;lon;timestamp;temperature;humidity
13205;DHT22;6667;52.634;9.226;2022-12-07T08:54:25;3.60;99.90
13205;DHT22;6667;52.634;9.226;2022-12-07T08:56:53;3.70;99.90
13205;DHT22;6667;52.634;9.226;2022-12-07T08:59:21;3.80;99.90
13205;DHT22;6667;52.634;9.226;2022-12-07T09:01:48;3.80;99.90
13205;DHT22;6667;52.634;9.226;2022-12-07T09:04:15;3.80;99.90
13205;DHT22;6667;52.634;9.226;2022-12-07T09:06:42;3.90;99.90
13205;DHT22;6667;52.634;9.226;2022-12-07T09:09:09;3.90;99.90
13205;DHT22;6667;52.634;9.226;2022-12-07T09:11:38;3.90;99.90
13205;DHT22;6667;52.634;9.226;2022-12-07T09:14:06;4.10;99.90
13205;DHT22;6667;52.634;9.226;2022-12-07T09:16:32;4.20;99.90
13205;DHT22;6667;52.634;9.226;2022-12-07T09:18:59;4.40;99.90
13205;DHT22;6667;52.634;9.226;2022-12-07T09:21:26;4.70;99.90
13205;DHT22;6667;52.634;9.226;2022-12-07T09:23:53;4.80;99.90
13205;DHT22;6667;52.634;9.226;2022-12-07T09:26:19;5.20;99.90
13205;DHT22;6667;52.634;9.226;2022-12-07T09:28:47;5.40;99.90
13205;DHT22;6667;52.634;9.226;2022-12-07T09:31:14;5.70;99.90
13205;DHT22;6667;52.634;9.226;2022-12-07T09:33:41;5.90;99.90
13205;DHT22;6667;52.634;9.226;2022-12-07T09:36:08;6.10;99.90
13205;DHT22;6667;52.634;9.226;2022-12-07T09:38:35;6.00;99.90
13205;DHT22;6667;52.634;9.226;2022-12-07T09:41:05;5.80;99.90
13205;DHT22;6667;52.634;9.226;2022-12-07T09:43:35;5.50;99.90
13205;DHT22;6667;52.634;9.226;2022-12-07T09:46:04;5.40;99.90
13205;DHT22;6667;52.634;9.226;2022-12-07T09:48:33;5.40;99.90
13205;DHT22;6667;52.634;9.226;2022-12-07T09:51:02;5.30;99.90
13205;DHT22;6667;52.634;9.226;2022-12-07T09:53:33;5.30;99.90
13205;DHT22;6667;52.634;9.226;2022-12-07T09:56:01;5.20;99.90
13205;DHT22;6667;52.634;9.226;2022-12-07T09:58:30;5.20;99.90
13205;DHT22;6667;52.634;9.226;2022-12-07T10:01:01;5.20;99.90
13205;DHT22;6667;52.634;9.226;2022-12-07T10:03:34;5.20;99.90
13205;DHT22;6667;52.634;9.226;2022-12-07T10:06:02;5.10;99.90
13205;DHT22;6667;52.634;9.226;2022-12-07T10:08:29;5.00;99.90
13205;DHT22;6667;52.634;9.226;2022-12-07T10:10:56;5.00;99.90
13205;DHT22;6667;52.634;9.226;2022-12-07T10:13:34;5.00;99.90
13205;DHT22;6667;52.634;9.226;2022-12-07T10:16:02;5.00;99.90
13205;DHT22;6667;52.634;9.226;2022-12-07T10:18:31;5.10;99.90
13205;DHT22;6667;52.634;9.226;2022-12-07T10:21:08;5.20;99.90
13205;DHT22;6667;52.634;9.226;2022-12-07T10:23:37;5.10;99.90
13205;DHT22;6667;52.634;9.226;2022-12-07T10:26:21;5.10;99.90
13205;DHT22;6667;52.634;9.226;2022-12-07T10:28:51;5.00;99.90
13205;DHT22;6667;52.634;9.226;2022-12-07T10:31:20;4.90;99.90
13205;DHT22;6667;52.634;9.226;2022-12-07T10:33:50;4.80;99.90
13205;DHT22;6667;52.634;9.226;2022-12-07T10:36:22;4.80;99.90
13205;DHT22;6667;52.634;9.226;2022-12-07T10:38:51;4.70;99.90
13205;DHT22;6667;52.634;9.226;2022-12-07T10:41:18;4.70;99.90
13205;DHT22;6667;52.634;9.226;2022-12-07T10:43:53;4.50;99.90
13205;DHT22;6667;52.634;9.226;2022-12-07T10:46:37;4.60;99.90
13205;DHT22;6667;52.634;9.226;2022-12-07T10:49:21;4.60;99.90
13205;DHT22;6667;52.634;9.226;2022-12-07T10:52:00;4.70;99.90
13205;DHT22;6667;52.634;9.226;2022-12-07T10:54:40;4.90;99.90
13205;DHT22;6667;52.634;9.226;2022-12-07T10:57:26;5.10;99.90
13205;DHT22;6667;52.634;9.226;2022-12-07T11:00:02;5.20;99.90
13205;DHT22;6667;52.634;9.226;2022-12-07T11:02:39;5.50;99.90
13205;DHT22;6667;52.634;9.226;2022-12-07T11:05:17;5.50;99.90
13205;DHT22;6667;52.634;9.226;2022-12-07T11:07:57;5.40;99.90
13205;DHT22;6667;52.634;9.226;2022-12-07T11:10:33;5.40;99.90
13205;DHT22;6667;52.634;9.226;2022-12-07T11:13:17;5.40;99.90
13205;DHT22;6667;52.634;9.226;2022-12-07T11:15:57;5.40;99.90
13205;DHT22;6667;52.634;9.226;2022-12-07T11:18:32;5.40;99.90
13205;DHT22;6667;52.634;9.226;2022-12-07T11:21:13;5.40;99.90
13205;DHT22;6667;52.634;9.226;2022-12-07T11:23:50;5.60;99.90
13205;DHT22;6667;52.634;9.226;2022-12-07T11:26:28;5.70;99.90
13205;DHT22;6667;52.634;9.226;2022-12-07T11:29:09;5.80;99.90
13205;DHT22;6667;52.634;9.226;2022-12-07T11:31:51;5.80;99.90
13205;DHT22;6667;52.634;9.226;2022-12-07T11:34:27;5.90;99.90
13205;DHT22;6667;52.634;9.226;2022-12-07T11:36:56;6.10;99.90
13205;DHT22;6667;52.634;9.226;2022-12-07T11:39:30;6.10;99.90
13205;DHT22;6667;52.634;9.226;2022-12-07T11:42:03;6.10;99.90
13205;DHT22;6667;52.634;9.226;2022-12-07T11:44:34;6.10;99.90
13205;DHT22;6667;52.634;9.226;2022-12-07T11:47:08;6.00;99.90
13205;DHT22;6667;52.634;9.226;2022-12-07T11:49:42;6.00;99.90
13205;DHT22;6667;52.634;9.226;2022-12-07T11:52:17;5.90;99.90
13205;DHT22;6667;52.634;9.226;2022-12-07T11:54:47;6.00;99.90
13205;DHT22;6667;52.634;9.226;2022-12-07T11:57:20;6.00;99.90
13205;DHT22;6667;52.634;9.226;2022-12-07T11:59:51;6.00;99.90
13205;DHT22;6667;52.634;9.226;2022-12-07T12:02:22;6.10;99.90
13205;DHT22;6667;52.634;9.226;2022-12-07T12:04:55;6.10;99.90
13205;DHT22;6667;52.634;9.226;2022-12-07T12:07:25;6.20;99.90
13205;DHT22;6667;52.634;9.226;2022-12-07T12:09:58;6.20;99.90
13205;DHT22;6667;52.634;9.226;2022-12-07T12:15:43;6.30;99.90
13205;DHT22;6667;52.634;9.226;2022-12-07T12:18:26;6.20;99.90
13205;DHT22;6667;52.634;9.226;2022-12-07T12:20:56;6.20;99.90
13205;DHT22;6667;52.634;9.226;2022-12-07T12:23:27;6.30;99.90
13205;DHT22;6667;52.634;9.226;2022-12-07T12:26:00;6.20;99.90
13205;DHT22;6667;52.634;9.226;2022-12-07T12:28:30;6.20;99.90
13205;DHT22;6667;52.634;9.226;2022-12-07T12:31:08;6.20;99.90
13205;DHT22;6667;52.634;9.226;2022-12-07T12:33:35;6.10;99.90
13205;DHT22;6667;52.634;9.226;2022-12-07T12:36:22;6.10;99.90
13205;DHT22;6667;52.634;9.226;2022-12-07T12:38:51;6.10;99.90
13205;DHT22;6667;52.634;9.226;2022-12-07T12:44:42;6.00;99.90
13205;DHT22;6667;52.634;9.226;2022-12-07T12:48:02;5.90;99.90
13205;DHT22;6667;52.634;9.226;2022-12-07T12:50:31;5.90;99.90
13205;DHT22;6667;52.634;9.226;2022-12-07T12:53:16;5.90;99.90
13205;DHT22;6667;52.634;9.226;2022-12-07T12:56:10;5.80;99.90
13205;DHT22;6667;52.634;9.226;2022-12-07T12:58:42;5.90;99.90
13205;DHT22;6667;52.634;9.226;2022-12-07T13:01:45;5.80;99.90
13205;DHT22;6667;52.634;9.226;2022-12-07T13:04:26;5.80;99.90
13205;DHT22;6667;52.634;9.226;2022-12-07T13:06:53;5.80;99.90
13205;DHT22;6667;52.634;9.226;2022-12-07T13:09:22;5.80;99.90
13205;DHT22;6667;52.634;9.226;2022-12-07T13:11:56;5.80;99.90
13205;DHT22;6667;52.634;9.226;2022-12-07T13:14:52;5.80;99.90
13205;DHT22;6667;52.634;9.226;2022-12-07T13:20:45;5.70;99.90
13205;DHT22;6667;52.634;9.226;2022-12-07T13:23:13;5.70;99.90
13205;DHT22;6667;52.634;9.226;2022-12-07T13:25:49;5.70;99.90
13205;DHT22;6667;52.634;9.226;2022-12-07T13:28:18;5.60;99.90
13205;DHT22;6667;52.634;9.226;2022-12-07T13:30:54;5.60;99.90
13205;DHT22;6667;52.634;9.226;2022-12-07T13:33:24;5.60;99.90
13205;DHT22;6667;52.634;9.226;2022-12-07T13:35:56;5.60;99.90
13205;DHT22;6667;52.634;9.226;2022-12-07T13:38:28;5.50;99.90
13205;DHT22;6667;52.634;9.226;2022-12-07T13:41:04;5.50;99.90
13205;DHT22;6667;52.634;9.226;2022-12-07T13:43:31;5.40;99.90
13205;DHT22;6667;52.634;9.226;2022-12-07T13:45:58;5.40;99.90
13205;DHT22;6667;52.634;9.226;2022-12-07T13:48:30;5.40;99.90
13205;DHT22;6667;52.634;9.226;2022-12-07T13:51:02;5.30;99.90
13205;DHT22;6667;52.634;9.226;2022-12-07T13:53:29;5.30;99.90
13205;DHT22;6667;52.634;9.226;2022-12-07T13:55:57;5.20;99.90
13205;DHT22;6667;52.634;9.226;2022-12-07T13:58:25;5.20;99.90
13205;DHT22;6667;52.634;9.226;2022-12-07T14:00:52;5.10;99.90
13205;DHT22;6667;52.634;9.226;2022-12-07T14:03:27;5.10;99.90
13205;DHT22;6667;52.634;9.226;2022-12-07T14:06:13;5.10;99.90
13205;DHT22;6667;52.634;9.226;2022-12-07T14:08:41;5.00;99.90
13205;DHT22;6667;52.634;9.226;2022-12-07T14:11:12;5.00;99.90
13205;DHT22;6667;52.634;9.226;2022-12-07T14:13:42;4.90;99.90
13205;DHT22;6667;52.634;9.226;2022-12-07T14:16:22;5.00;99.90
13205;DHT22;6667;52.634;9.226;2022-12-07T14:18:49;4.90;99.90
13205;DHT22;6667;52.634;9.226;2022-12-07T14:21:19;4.90;99.90
13205;DHT22;6667;52.634;9.226;2022-12-07T14:24:08;4.80;99.90
13205;DHT22;6667;52.634;9.226;2022-12-07T14:26:35;4.80;99.90
13205;DHT22;6667;52.634;9.226;2022-12-07T14:29:30;4.80;99.90
13205;DHT22;6667;52.634;9.226;2022-12-07T14:32:01;4.70;99.90
13205;DHT22;6667;52.634;9.226;2022-12-07T14:34:37;4.70;99.90
13205;DHT22;6667;52.634;9.226;2022-12-07T14:37:07;4.70;99.90
13205;DHT22;6667;52.634;9.226;2022-12-07T14:39:36;4.60;99.90
13205;DHT22;6667;52.634;9.226;2022-12-07T14:42:03;4.60;99.90
13205;DHT22;6667;52.634;9.226;2022-12-07T14:44:29;4.50;99.90
13205;DHT22;6667;52.634;9.226;2022-12-07T14:46:56;4.50;99.90
13205;DHT22;6667;52.634;9.226;2022-12-07T14:49:26;4.60;99.90
13205;DHT22;6667;52.634;9.226;2022-12-07T14:51:53;4.50;99.90
13205;DHT22;6667;52.634;9.226;2022-12-07T14:54:25;4.50;99.90
13205;DHT22;6667;52.634;9.226;2022-12-07T14:56:53;4.50;99.90
13205;DHT22;6667;52.634;9.226;2022-12-07T14:59:20;4.50;99.90
13205;DHT22;6667;52.634;9.226;2022-12-07T15:01:47;4.50;99.90
13205;DHT22;6667;52.634;9.226;2022-12-07T15:04:14;4.50;99.90
13205;DHT22;6667;52.634;9.226;2022-12-07T15:06:40;4.40;99.90
13205;DHT22;6667;52.634;9.226;2022-12-07T15:09:10;4.50;99.90
13205;DHT22;6667;52.634;9.226;2022-12-07T15:11:38;4.40;99.90
13205;DHT22;6667;52.634;9.226;2022-12-07T15:14:05;4.40;99.90
13205;DHT22;6667;52.634;9.226;2022-12-07T15:16:37;4.40;99.90
13205;DHT22;6667;52.634;9.226;2022-12-07T15:19:06;4.40;99.90
13205;DHT22;6667;52.634;9.226;2022-12-07T15:21:35;4.40;99.90
13205;DHT22;6667;52.634;9.226;2022-12-07T15:24:02;4.40;99.90
13205;DHT22;6667;52.634;9.226;2022-12-07T15:26:29;4.40;99.90
13205;DHT22;6667;52.634;9.226;2022-12-07T15:28:58;4.40;99.90
13205;DHT22;6667;52.634;9.226;2022-12-07T15:31:24;4.40;99.90
13205;DHT22;6667;52.634;9.226;2022-12-07T15:33:51;4.40;99.90
13205;DHT22;6667;52.634;9.226;2022-12-07T15:36:19;4.40;99.90
13205;DHT22;6667;52.634;9.226;2022-12-07T15:38:47;4.40;99.90
13205;DHT22;6667;52.634;9.226;2022-12-07T15:41:13;4.40;99.90
13205;DHT22;6667;52.634;9.226;2022-12-07T15:43:40;4.40;99.90
13205;DHT22;6667;52.634;9.226;2022-12-07T15:46:30;4.40;99.90
13205;DHT22;6667;52.634;9.226;2022-12-07T15:48:57;4.40;99.90
13205;DHT22;6667;52.634;9.226;2022-12-07T15:51:24;4.40;99.90
13205;DHT22;6667;52.634;9.226;2022-12-07T15:53:51;4.40;99.90
13205;DHT22;6667;52.634;9.226;2022-12-07T15:56:18;4.40;99.90
13205;DHT22;6667;52.634;9.226;2022-12-07T15:58:46;4.40;99.90
13205;DHT22;6667;52.634;9.226;2022-12-07T16:01:14;4.40;99.90
13205;DHT22;6667;52.634;9.226;2022-12-07T16:03:43;4.40;99.90
13205;DHT22;6667;52.634;9.226;2022-12-07T16:06:10;4.40;99.90
13205;DHT22;6667;52.634;9.226;2022-12-07T16:08:41;4.40;99.90
13205;DHT22;6667;52.634;9.226;2022-12-07T16:11:08;4.40;99.90
13205;DHT22;6667;52.634;9.226;2022-12-07T16:13:35;4.40;99.90
13205;DHT22;6667;52.634;9.226;2022-12-07T16:16:03;4.40;99.90
13205;DHT22;6667;52.634;9.226;2022-12-07T16:18:30;4.30;99.90
13205;DHT22;6667;52.634;9.226;2022-12-07T16:20:59;4.30;99.90
13205;DHT22;6667;52.634;9.226;2022-12-07T16:23:26;4.30;99.90
13205;DHT22;6667;52.634;9.226;2022-12-07T16:25:53;4.30;99.90
13205;DHT22;6667;52.634;9.226;2022-12-07T16:28:21;4.30;99.90
13205;DHT22;6667;52.634;9.226;2022-12-07T16:30:47;4.10;99.90
13205;DHT22;6667;52.634;9.226;2022-12-07T16:33:14;3.90;99.90
13205;DHT22;6667;52.634;9.226;2022-12-07T16:35:41;3.60;99.90
13205;DHT22;6667;52.634;9.226;2022-12-07T16:38:10;3.40;99.90
13205;DHT22;6667;52.634;9.226;2022-12-07T16:40:37;3.40;99.90
13205;DHT22;6667;52.634;9.226;2022-12-07T16:43:04;3.30;99.90
13205;DHT22;6667;52.634;9.226;2022-12-07T16:45:30;3.20;99.90
13205;DHT22;6667;52.634;9.226;2022-12-07T16:47:57;3.10;99.90
13205;DHT22;6667;52.634;9.226;2022-12-07T16:50:24;3.20;99.90
13205;DHT22;6667;52.634;9.226;2022-12-07T16:52:51;3.20;99.90
13205;DHT22;6667;52.634;9.226;2022-12-07T16:55:19;3.30;99.90
13205;DHT22;6667;52.634;9.226;2022-12-07T16:57:46;3.30;99.90
13205;DHT22;6667;52.634;9.226;2022-12-07T17:00:13;3.40;99.90
13205;DHT22;6667;52.634;9.226;2022-12-07T17:02:40;3.30;99.90
13205;DHT22;6667;52.634;9.226;2022-12-07T17:05:07;3.30;99.90
13205;DHT22;6667;52.634;9.226;2022-12-07T17:07:34;3.30;99.90
13205;DHT22;6667;52.634;9.226;2022-12-07T17:10:01;3.30;99.90
13205;DHT22;6667;52.634;9.226;2022-12-07T17:12:29;3.30;99.90
13205;DHT22;6667;52.634;9.226;2022-12-07T17:14:56;3.20;99.90
13205;DHT22;6667;52.634;9.226;2022-12-07T17:17:40;3.20;99.90
13205;DHT22;6667;52.634;9.226;2022-12-07T17:20:08;3.20;99.90
13205;DHT22;6667;52.634;9.226;2022-12-07T17:22:35;3.20;99.90
13205;DHT22;6667;52.634;9.226;2022-12-07T17:25:02;3.20;99.90
13205;DHT22;6667;52.634;9.226;2022-12-07T17:27:30;3.20;99.90
13205;DHT22;6667;52.634;9.226;2022-12-07T17:29:57;3.10;99.90
13205;DHT22;6667;52.634;9.226;2022-12-07T17:32:24;3.10;99.90
13205;DHT22;6667;52.634;9.226;2022-12-07T17:34:51;3.10;99.90
13205;DHT22;6667;52.634;9.226;2022-12-07T17:37:17;3.00;99.90
13205;DHT22;6667;52.634;9.226;2022-12-07T17:39:44;3.00;99.90
13205;DHT22;6667;52.634;9.226;2022-12-07T17:42:11;3.00;99.90
13205;DHT22;6667;52.634;9.226;2022-12-07T17:44:56;3.00;99.90
13205;DHT22;6667;52.634;9.226;2022-12-07T17:47:23;3.00;99.90
13205;DHT22;6667;52.634;9.226;2022-12-07T17:49:50;3.10;99.90
13205;DHT22;6667;52.634;9.226;2022-12-07T17:52:17;3.10;99.90
13205;DHT22;6667;52.634;9.226;2022-12-07T17:55:01;3.10;99.90
13205;DHT22;6667;52.634;9.226;2022-12-07T17:57:28;3.10;99.90
13205;DHT22;6667;52.634;9.226;2022-12-07T17:59:56;3.10;99.90
13205;DHT22;6667;52.634;9.226;2022-12-07T18:02:23;3.00;99.90
13205;DHT22;6667;52.634;9.226;2022-12-07T18:04:50;3.00;99.90
13205;DHT22;6667;52.634;9.226;2022-12-07T18:07:17;3.00;99.90
13205;DHT22;6667;52.634;9.226;2022-12-07T18:09:44;3.00;99.90
13205;DHT22;6667;52.634;9.226;2022-12-07T18:12:11;3.00;99.90
13205;DHT22;6667;52.634;9.226;2022-12-07T18:14:37;3.00;99.90
13205;DHT22;6667;52.634;9.226;2022-12-07T18:17:05;2.90;99.90
13205;DHT22;6667;52.634;9.226;2022-12-07T18:19:32;2.90;99.90
13205;DHT22;6667;52.634;9.226;2022-12-07T18:22:01;2.90;99.90
13205;DHT22;6667;52.634;9.226;2022-12-07T18:24:28;2.90;99.90
13205;DHT22;6667;52.634;9.226;2022-12-07T18:26:55;2.90;99.90
13205;DHT22;6667;52.634;9.226;2022-12-07T18:29:22;2.80;99.90
13205;DHT22;6667;52.634;9.226;2022-12-07T18:31:48;2.90;99.90
13205;DHT22;6667;52.634;9.226;2022-12-07T18:34:18;2.90;99.90
13205;DHT22;6667;52.634;9.226;2022-12-07T18:36:47;2.90;99.90
13205;DHT22;6667;52.634;9.226;2022-12-07T18:39:14;2.90;99.90
13205;DHT22;6667;52.634;9.226;2022-12-07T18:41:42;2.90;99.90
13205;DHT22;6667;52.634;9.226;2022-12-07T18:44:09;2.90;99.90
13205;DHT22;6667;52.634;9.226;2022-12-07T18:46:37;2.90;99.90
13205;DHT22;6667;52.634;9.226;2022-12-07T18:49:05;2.90;99.90
13205;DHT22;6667;52.634;9.226;2022-12-07T18:51:33;2.90;99.90
13205;DHT22;6667;52.634;9.226;2022-12-07T18:54:00;3.00;99.90
13205;DHT22;6667;52.634;9.226;2022-12-07T18:56:27;3.00;99.90
13205;DHT22;6667;52.634;9.226;2022-12-07T18:58:57;3.00;99.90
13205;DHT22;6667;52.634;9.226;2022-12-07T19:01:42;3.00;99.90
13205;DHT22;6667;52.634;9.226;2022-12-07T19:04:10;3.10;99.90
13205;DHT22;6667;52.634;9.226;2022-12-07T19:06:40;3.10;99.90
13205;DHT22;6667;52.634;9.226;2022-12-07T19:09:07;3.10;99.90
13205;DHT22;6667;52.634;9.226;2022-12-07T19:11:34;3.20;99.90
13205;DHT22;6667;52.634;9.226;2022-12-07T19:14:19;3.20;99.90
13205;DHT22;6667;52.634;9.226;2022-12-07T19:16:46;3.20;99.90
13205;DHT22;6667;52.634;9.226;2022-12-07T19:19:15;3.20;99.90
13205;DHT22;6667;52.634;9.226;2022-12-07T19:21:44;3.20;99.90
13205;DHT22;6667;52.634;9.226;2022-12-07T19:24:11;3.30;99.90
13205;DHT22;6667;52.634;9.226;2022-12-07T19:26:38;3.20;99.90
13205;DHT22;6667;52.634;9.226;2022-12-07T19:29:05;3.30;99.90
13205;DHT22;6667;52.634;9.226;2022-12-07T19:31:32;3.30;99.90
13205;DHT22;6667;52.634;9.226;2022-12-07T19:33:59;3.30;99.90
13205;DHT22;6667;52.634;9.226;2022-12-07T19:36:26;3.30;99.90
13205;DHT22;6667;52.634;9.226;2022-12-07T19:38:55;3.30;99.90
13205;DHT22;6667;52.634;9.226;2022-12-07T19:41:21;3.40;99.90
13205;DHT22;6667;52.634;9.226;2022-12-07T19:44:01;3.40;99.90
13205;DHT22;6667;52.634;9.226;2022-12-07T19:46:29;3.40;99.90
13205;DHT22;6667;52.634;9.226;2022-12-07T19:48:56;3.40;99.90
13205;DHT22;6667;52.634;9.226;2022-12-07T19:51:25;3.40;99.90
13205;DHT22;6667;52.634;9.226;2022-12-07T19:53:51;3.40;99.90
13205;DHT22;6667;52.634;9.226;2022-12-07T19:56:20;3.40;99.90
13205;DHT22;6667;52.634;9.226;2022-12-07T19:58:47;3.40;99.90
13205;DHT22;6667;52.634;9.226;2022-12-07T20:01:14;3.50;99.90
13205;DHT22;6667;52.634;9.226;2022-12-07T20:03:41;3.40;99.90
13205;DHT22;6667;52.634;9.226;2022-12-07T20:06:10;3.40;99.90
13205;DHT22;6667;52.634;9.226;2022-12-07T20:08:37;3.40;99.90
13205;DHT22;6667;52.634;9.226;2022-12-07T20:11:04;3.40;99.90
13205;DHT22;6667;52.634;9.226;2022-12-07T20:13:53;3.40;99.90
13205;DHT22;6667;52.634;9.226;2022-12-07T20:16:19;3.40;99.90
13205;DHT22;6667;52.634;9.226;2022-12-07T20:18:46;3.40;99.90
13205;DHT22;6667;52.634;9.226;2022-12-07T20:21:13;3.40;99.90
13205;DHT22;6667;52.634;9.226;2022-12-07T20:23:40;3.40;99.90
13205;DHT22;6667;52.634;9.226;2022-12-07T20:26:09;3.40;99.90
13205;DHT22;6667;52.634;9.226;2022-12-07T20:28:37;3.40;99.90
13205;DHT22;6667;52.634;9.226;2022-12-07T20:31:05;3.40;99.90
13205;DHT22;6667;52.634;9.226;2022-12-07T20:33:32;3.40;99.90
13205;DHT22;6667;52.634;9.226;2022-12-07T20:35:59;3.30;99.90
13205;DHT22;6667;52.634;9.226;2022-12-07T20:38:27;3.30;99.90
13205;DHT22;6667;52.634;9.226;2022-12-07T20:40:58;3.30;99.90
13205;DHT22;6667;52.634;9.226;2022-12-07T20:43:26;3.30;99.90
13205;DHT22;6667;52.634;9.226;2022-12-07T20:45:52;3.30;99.90
13205;DHT22;6667;52.634;9.226;2022-12-07T20:48:21;3.30;99.90
13205;DHT22;6667;52.634;9.226;2022-12-07T20:50:48;3.30;99.90
13205;DHT22;6667;52.634;9.226;2022-12-07T20:53:15;3.30;99.90
13205;DHT22;6667;52.634;9.226;2022-12-07T20:55:42;3.30;99.90
13205;DHT22;6667;52.634;9.226;2022-12-07T20:58:09;3.30;99.90
13205;DHT22;6667;52.634;9.226;2022-12-07T21:00:36;3.30;99.90
13205;DHT22;6667;52.634;9.226;2022-12-07T21:03:03;3.30;99.90
13205;DHT22;6667;52.634;9.226;2022-12-07T21:05:32;3.30;99.90
13205;DHT22;6667;52.634;9.226;2022-12-07T21:08:00;3.30;99.90
13205;DHT22;6667;52.634;9.226;2022-12-07T21:10:26;3.30;99.90
13205;DHT22;6667;52.634;9.226;2022-12-07T21:12:53;3.30;99.90
13205;DHT22;6667;52.634;9.226;2022-12-07T21:15:20;3.40;99.90
13205;DHT22;6667;52.634;9.226;2022-12-07T21:17:46;3.40;99.90
13205;DHT22;6667;52.634;9.226;2022-12-07T21:20:13;3.40;99.90
13205;DHT22;6667;52.634;9.226;2022-12-07T21:22:41;3.40;99.90
13205;DHT22;6667;52.634;9.226;2022-12-07T21:25:08;3.40;99.90
13205;DHT22;6667;52.634;9.226;2022-12-07T21:27:35;3.40;99.90
13205;DHT22;6667;52.634;9.226;2022-12-07T21:30:03;3.40;99.90
13205;DHT22;6667;52.634;9.226;2022-12-07T21:32:29;3.40;99.90
13205;DHT22;6667;52.634;9.226;2022-12-07T21:34:56;3.40;99.90
13205;DHT22;6667;52.634;9.226;2022-12-07T21:37:23;3.40;99.90
13205;DHT22;6667;52.634;9.226;2022-12-07T21:39:51;3.40;99.90
13205;DHT22;6667;52.634;9.226;2022-12-07T21:42:18;3.40;99.90
13205;DHT22;6667;52.634;9.226;2022-12-07T21:44:44;3.40;99.90
13205;DHT22;6667;52.634;9.226;2022-12-07T21:47:11;3.40;99.90
13205;DHT22;6667;52.634;9.226;2022-12-07T21:49:38;3.40;99.90
13205;DHT22;6667;52.634;9.226;2022-12-07T21:52:05;3.30;99.90
13205;DHT22;6667;52.634;9.226;2022-12-07T21:54:32;3.30;99.90
13205;DHT22;6667;52.634;9.226;2022-12-07T21:57:00;3.30;99.90
13205;DHT22;6667;52.634;9.226;2022-12-07T21:59:27;3.40;99.90
13205;DHT22;6667;52.634;9.226;2022-12-07T22:01:54;3.40;99.90
13205;DHT22;6667;52.634;9.226;2022-12-07T22:04:22;3.30;99.90
13205;DHT22;6667;52.634;9.226;2022-12-07T22:06:51;3.40;99.90
13205;DHT22;6667;52.634;9.226;2022-12-07T22:09:19;3.40;99.90
13205;DHT22;6667;52.634;9.226;2022-12-07T22:11:48;3.40;99.90
13205;DHT22;6667;52.634;9.226;2022-12-07T22:14:16;3.30;99.90
13205;DHT22;6667;52.634;9.226;2022-12-07T22:17:00;3.40;99.90
13205;DHT22;6667;52.634;9.226;2022-12-07T22:19:27;3.40;99.90
